sensor_id;sensor_type;location;lat;lon;timestamp;pressure;altitude;pressure_sealevel;temperature;humidity
69574;BME280;62840;52.366;5.980;2023-11-21T00:01:41;100966.22;;;8.70;76.74
69574;BME280;62840;52.366;5.980;2023-11-21T00:04:09;100969.22;;;8.65;76.86
69574;BME280;62840;52.366;5.980;2023-11-21T00:06:35;100969.34;;;8.64;76.81
69574;BME280;62840;52.366;5.980;2023-11-21T00:09:01;100982.66;;;8.64;76.79
69574;BME280;62840;52.366;5.980;2023-11-21T00:11:27;100979.25;;;8.62;76.77
69574;BME280;62840;52.366;5.980;2023-11-21T00:13:52;100980.28;;;8.59;76.82
69574;BME280;62840;52.366;5.980;2023-11-21T00:16:18;100985.00;;;8.55;76.79
69574;BME280;62840;52.366;5.980;2023-11-21T00:18:44;100987.75;;;8.54;76.82
69574;BME280;62840;52.366;5.980;2023-11-21T00:21:12;100986.19;;;8.51;76.92
69574;BME280;62840;52.366;5.980;2023-11-21T00:23:38;100985.44;;;8.49;76.67
69574;BME280;62840;52.366;5.980;2023-11-21T00:26:05;100996.06;;;8.49;76.75
69574;BME280;62840;52.366;5.980;2023-11-21T00:28:31;100985.66;;;8.46;76.83
69574;BME280;62840;52.366;5.980;2023-11-21T00:30:57;100990.13;;;8.46;76.92
69574;BME280;62840;52.366;5.980;2023-11-21T00:33:22;100991.19;;;8.43;76.75
69574;BME280;62840;52.366;5.980;2023-11-21T00:35:48;101000.13;;;8.42;76.74
69574;BME280;62840;52.366;5.980;2023-11-21T00:38:16;100991.41;;;8.40;76.69
69574;BME280;62840;52.366;5.980;2023-11-21T00:40:42;101001.28;;;8.38;76.80
69574;BME280;62840;52.366;5.980;2023-11-21T00:43:08;100997.78;;;8.37;76.77
69574;BME280;62840;52.366;5.980;2023-11-21T00:45:34;101000.56;;;8.36;76.82
69574;BME280;62840;52.366;5.980;2023-11-21T00:48:00;101011.19;;;8.36;76.90
69574;BME280;62840;52.366;5.980;2023-11-21T00:50:26;101013.75;;;8.37;76.86
69574;BME280;62840;52.366;5.980;2023-11-21T00:52:52;101016.50;;;8.36;76.81
69574;BME280;62840;52.366;5.980;2023-11-21T00:55:20;101002.28;;;8.37;76.97
69574;BME280;62840;52.366;5.980;2023-11-21T00:57:46;101013.84;;;8.36;76.83
69574;BME280;62840;52.366;5.980;2023-11-21T01:00:13;101006.84;;;8.35;76.98
69574;BME280;62840;52.366;5.980;2023-11-21T01:02:39;101013.84;;;8.36;76.91
69574;BME280;62840;52.366;5.980;2023-11-21T01:05:06;101011.19;;;8.36;76.94
69574;BME280;62840;52.366;5.980;2023-11-21T01:07:32;101017.47;;;8.35;76.91
69574;BME280;62840;52.366;5.980;2023-11-21T01:09:58;101027.13;;;8.36;77.22
69574;BME280;62840;52.366;5.980;2023-11-21T01:12:26;101033.94;;;8.40;77.05
69574;BME280;62840;52.366;5.980;2023-11-21T01:14:52;101033.69;;;8.43;76.93
69574;BME280;62840;52.366;5.980;2023-11-21T01:17:18;101041.66;;;8.43;77.10
69574;BME280;62840;52.366;5.980;2023-11-21T01:19:44;101037.31;;;8.42;77.05
69574;BME280;62840;52.366;5.980;2023-11-21T01:22:09;101032.00;;;8.42;77.01
69574;BME280;62840;52.366;5.980;2023-11-21T01:24:35;101045.06;;;8.45;77.01
69574;BME280;62840;52.366;5.980;2023-11-21T01:27:01;101035.19;;;8.47;77.11
69574;BME280;62840;52.366;5.980;2023-11-21T01:29:30;101035.94;;;8.49;77.06
69574;BME280;62840;52.366;5.980;2023-11-21T01:31:55;101042.97;;;8.50;77.08
69574;BME280;62840;52.366;5.980;2023-11-21T01:34:21;101045.63;;;8.50;76.93
69574;BME280;62840;52.366;5.980;2023-11-21T01:36:47;101045.63;;;8.50;77.04
69574;BME280;62840;52.366;5.980;2023-11-21T01:39:13;101048.28;;;8.50;77.11
69574;BME280;62840;52.366;5.980;2023-11-21T01:41:39;101040.31;;;8.50;77.19
69574;BME280;62840;52.366;5.980;2023-11-21T01:44:05;101045.41;;;8.53;77.04
69574;BME280;62840;52.366;5.980;2023-11-21T01:46:33;101042.84;;;8.52;77.10
69574;BME280;62840;52.366;5.980;2023-11-21T01:48:59;101043.69;;;8.52;76.97
69574;BME280;62840;52.366;5.980;2023-11-21T01:51:25;101045.41;;;8.53;77.05
69574;BME280;62840;52.366;5.980;2023-11-21T01:53:51;101043.69;;;8.52;77.05
69574;BME280;62840;52.366;5.980;2023-11-21T01:56:17;101046.13;;;8.55;77.05
69574;BME280;62840;52.366;5.980;2023-11-21T01:58:43;101050.47;;;8.56;76.83
69574;BME280;62840;52.366;5.980;2023-11-21T02:01:10;101042.50;;;8.56;76.89
69574;BME280;62840;52.366;5.980;2023-11-21T02:03:38;101045.81;;;8.60;76.95
69574;BME280;62840;52.366;5.980;2023-11-21T02:06:05;101048.56;;;8.58;77.17
69574;BME280;62840;52.366;5.980;2023-11-21T02:08:31;101055.59;;;8.59;77.08
69574;BME280;62840;52.366;5.980;2023-11-21T02:10:57;101066.22;;;8.59;77.03
69574;BME280;62840;52.366;5.980;2023-11-21T02:13:23;101064.53;;;8.58;76.99
69574;BME280;62840;52.366;5.980;2023-11-21T02:15:48;101067.91;;;8.61;76.90
69574;BME280;62840;52.366;5.980;2023-11-21T02:18:14;101068.75;;;8.61;77.10
69574;BME280;62840;52.366;5.980;2023-11-21T02:20:43;101070.59;;;8.61;77.00
69574;BME280;62840;52.366;5.980;2023-11-21T02:23:11;101071.31;;;8.63;77.05
69574;BME280;62840;52.366;5.980;2023-11-21T02:25:37;101069.41;;;8.65;77.05
69574;BME280;62840;52.366;5.980;2023-11-21T02:28:04;101080.03;;;8.65;77.14
69574;BME280;62840;52.366;5.980;2023-11-21T02:30:30;101071.09;;;8.66;77.12
69574;BME280;62840;52.366;5.980;2023-11-21T02:32:56;101079.81;;;8.68;77.25
69574;BME280;62840;52.366;5.980;2023-11-21T02:35:22;101085.13;;;8.68;77.15
69574;BME280;62840;52.366;5.980;2023-11-21T02:37:48;101080.78;;;8.67;77.12
69574;BME280;62840;52.366;5.980;2023-11-21T02:40:17;101076.41;;;8.66;77.14
69574;BME280;62840;52.366;5.980;2023-11-21T02:42:43;101078.88;;;8.69;77.19
69574;BME280;62840;52.366;5.980;2023-11-21T02:45:09;101083.22;;;8.70;77.19
69574;BME280;62840;52.366;5.980;2023-11-21T02:47:35;101087.59;;;8.71;77.14
69574;BME280;62840;52.366;5.980;2023-11-21T02:50:01;101086.72;;;8.70;77.19
69574;BME280;62840;52.366;5.980;2023-11-21T02:52:27;101091.19;;;8.70;77.21
69574;BME280;62840;52.366;5.980;2023-11-21T02:54:53;101087.59;;;8.71;77.21
69574;BME280;62840;52.366;5.980;2023-11-21T02:57:21;101088.34;;;8.73;77.18
69574;BME280;62840;52.366;5.980;2023-11-21T02:59:47;101081.09;;;8.75;77.10
69574;BME280;62840;52.366;5.980;2023-11-21T03:02:13;101081.94;;;8.75;77.13
69574;BME280;62840;52.366;5.980;2023-11-21T03:04:38;101073.84;;;8.77;77.24
69574;BME280;62840;52.366;5.980;2023-11-21T03:07:04;101081.72;;;8.78;77.17
69574;BME280;62840;52.366;5.980;2023-11-21T03:09:30;101082.56;;;8.79;77.19
69574;BME280;62840;52.366;5.980;2023-11-21T03:11:56;101078.97;;;8.80;77.25
69574;BME280;62840;52.366;5.980;2023-11-21T03:14:24;101084.28;;;8.80;77.20
69574;BME280;62840;52.366;5.980;2023-11-21T03:16:50;101087.69;;;8.82;77.32
69574;BME280;62840;52.366;5.980;2023-11-21T03:19:16;101089.38;;;8.83;77.20
69574;BME280;62840;52.366;5.980;2023-11-21T03:21:41;101089.28;;;8.85;77.30
69574;BME280;62840;52.366;5.980;2023-11-21T03:24:07;101092.78;;;8.85;77.34
69574;BME280;62840;52.366;5.980;2023-11-21T03:26:33;101096.28;;;8.86;77.26
69574;BME280;62840;52.366;5.980;2023-11-21T03:28:59;101094.50;;;8.86;77.25
69574;BME280;62840;52.366;5.980;2023-11-21T03:31:28;101103.19;;;8.88;77.12
69574;BME280;62840;52.366;5.980;2023-11-21T03:33:54;101098.59;;;8.90;77.19
69574;BME280;62840;52.366;5.980;2023-11-21T03:36:19;101101.25;;;8.90;77.28
69574;BME280;62840;52.366;5.980;2023-11-21T03:38:45;101102.13;;;8.91;77.26
69574;BME280;62840;52.366;5.980;2023-11-21T03:41:13;101097.66;;;8.91;77.26
69574;BME280;62840;52.366;5.980;2023-11-21T03:43:39;101100.19;;;8.93;77.21
69574;BME280;62840;52.366;5.980;2023-11-21T03:46:05;101101.81;;;8.95;77.14
69574;BME280;62840;52.366;5.980;2023-11-21T03:48:34;101097.22;;;8.97;77.27
69574;BME280;62840;52.366;5.980;2023-11-21T03:51:00;101101.56;;;8.98;77.25
69574;BME280;62840;52.366;5.980;2023-11-21T03:53:25;101112.97;;;9.00;77.13
69574;BME280;62840;52.366;5.980;2023-11-21T03:55:51;101115.38;;;9.04;77.23
69574;BME280;62840;52.366;5.980;2023-11-21T03:58:17;101111.03;;;9.03;77.18
69574;BME280;62840;52.366;5.980;2023-11-21T04:00:43;101126.03;;;9.04;77.14
69574;BME280;62840;52.366;5.980;2023-11-21T04:03:09;101123.38;;;9.04;77.38
69574;BME280;62840;52.366;5.980;2023-11-21T04:05:37;101123.38;;;9.04;77.15
69574;BME280;62840;52.366;5.980;2023-11-21T04:08:03;101126.78;;;9.06;77.35
69574;BME280;62840;52.366;5.980;2023-11-21T04:10:29;101119.75;;;9.05;77.35
69574;BME280;62840;52.366;5.980;2023-11-21T04:12:55;101132.09;;;9.06;77.19
69574;BME280;62840;52.366;5.980;2023-11-21T04:15:21;101135.50;;;9.08;77.31
69574;BME280;62840;52.366;5.980;2023-11-21T04:17:47;101132.84;;;9.08;77.47
69574;BME280;62840;52.366;5.980;2023-11-21T04:20:13;101133.56;;;9.10;77.39
69574;BME280;62840;52.366;5.980;2023-11-21T04:22:43;101138.91;;;9.10;77.35
69574;BME280;62840;52.366;5.980;2023-11-21T04:25:10;101144.97;;;9.12;77.35
69574;BME280;62840;52.366;5.980;2023-11-21T04:27:36;101143.16;;;9.12;77.38
69574;BME280;62840;52.366;5.980;2023-11-21T04:30:04;101147.63;;;9.12;77.23
69574;BME280;62840;52.366;5.980;2023-11-21T04:32:32;101146.53;;;9.14;77.25
69574;BME280;62840;52.366;5.980;2023-11-21T04:34:58;101152.50;;;9.18;77.34
69574;BME280;62840;52.366;5.980;2023-11-21T04:37:24;101160.38;;;9.19;77.32
69574;BME280;62840;52.366;5.980;2023-11-21T04:39:52;101161.25;;;9.20;77.37
69574;BME280;62840;52.366;5.980;2023-11-21T04:42:18;101164.63;;;9.22;77.27
69574;BME280;62840;52.366;5.980;2023-11-21T04:44:44;101166.34;;;9.23;77.44
69574;BME280;62840;52.366;5.980;2023-11-21T04:47:10;101168.88;;;9.25;77.30
69574;BME280;62840;52.366;5.980;2023-11-21T04:49:35;101159.09;;;9.25;77.23
69574;BME280;62840;52.366;5.980;2023-11-21T04:52:01;101157.16;;;9.27;77.30
69574;BME280;62840;52.366;5.980;2023-11-21T04:54:27;101157.16;;;9.27;77.39
69574;BME280;62840;52.366;5.980;2023-11-21T04:56:55;101165.94;;;9.29;77.33
69574;BME280;62840;52.366;5.980;2023-11-21T04:59:21;101167.91;;;9.26;77.22
69574;BME280;62840;52.366;5.980;2023-11-21T05:01:47;101177.31;;;9.31;77.29
69574;BME280;62840;52.366;5.980;2023-11-21T05:04:13;101183.34;;;9.33;77.30
69574;BME280;62840;52.366;5.980;2023-11-21T05:06:38;101189.56;;;9.34;77.25
69574;BME280;62840;52.366;5.980;2023-11-21T05:09:04;101190.41;;;9.34;77.20
69574;BME280;62840;52.366;5.980;2023-11-21T05:11:30;101186.75;;;9.35;77.38
69574;BME280;62840;52.366;5.980;2023-11-21T05:13:58;101197.41;;;9.35;77.41
69574;BME280;62840;52.366;5.980;2023-11-21T05:16:25;101204.44;;;9.36;77.53
69574;BME280;62840;52.366;5.980;2023-11-21T05:18:51;101206.13;;;9.37;77.39
69574;BME280;62840;52.366;5.980;2023-11-21T05:21:17;101207.84;;;9.38;77.50
69574;BME280;62840;52.366;5.980;2023-11-21T05:23:43;101206.97;;;9.38;77.55
69574;BME280;62840;52.366;5.980;2023-11-21T05:26:08;101212.19;;;9.39;77.44
69574;BME280;62840;52.366;5.980;2023-11-21T05:28:34;101204.22;;;9.39;77.48
69574;BME280;62840;52.366;5.980;2023-11-21T05:31:03;101206.69;;;9.43;77.43
69574;BME280;62840;52.366;5.980;2023-11-21T05:33:28;101216.34;;;9.44;77.40
69574;BME280;62840;52.366;5.980;2023-11-21T05:35:54;101213.69;;;9.44;77.38
69574;BME280;62840;52.366;5.980;2023-11-21T05:38:20;101212.72;;;9.45;77.51
69574;BME280;62840;52.366;5.980;2023-11-21T05:40:46;101217.09;;;9.46;77.54
69574;BME280;62840;52.366;5.980;2023-11-21T05:43:12;101229.44;;;9.47;77.40
69574;BME280;62840;52.366;5.980;2023-11-21T05:45:37;101224.00;;;9.48;77.54
69574;BME280;62840;52.366;5.980;2023-11-21T05:48:06;101222.94;;;9.51;77.57
69574;BME280;62840;52.366;5.980;2023-11-21T05:50:32;101228.25;;;9.51;77.54
69574;BME280;62840;52.366;5.980;2023-11-21T05:52:58;101234.31;;;9.53;77.36
69574;BME280;62840;52.366;5.980;2023-11-21T05:55:24;101234.22;;;9.54;77.53
69574;BME280;62840;52.366;5.980;2023-11-21T05:57:49;101245.72;;;9.55;77.29
69574;BME280;62840;52.366;5.980;2023-11-21T06:00:15;101243.06;;;9.55;77.38
69574;BME280;62840;52.366;5.980;2023-11-21T06:02:41;101247.41;;;9.56;77.38
69574;BME280;62840;52.366;5.980;2023-11-21T06:05:10;101249.13;;;9.57;77.52
69574;BME280;62840;52.366;5.980;2023-11-21T06:07:37;101250.81;;;9.58;77.35
69574;BME280;62840;52.366;5.980;2023-11-21T06:10:04;101258.78;;;9.58;77.42
69574;BME280;62840;52.366;5.980;2023-11-21T06:12:31;101261.25;;;9.61;77.48
69574;BME280;62840;52.366;5.980;2023-11-21T06:14:56;101266.59;;;9.61;77.43
69574;BME280;62840;52.366;5.980;2023-11-21T06:17:22;101269.25;;;9.61;77.49
69574;BME280;62840;52.366;5.980;2023-11-21T06:19:48;101273.72;;;9.60;77.42
69574;BME280;62840;52.366;5.980;2023-11-21T06:22:17;101290.31;;;9.64;77.39
69574;BME280;62840;52.366;5.980;2023-11-21T06:24:42;101287.66;;;9.64;77.50
69574;BME280;62840;52.366;5.980;2023-11-21T06:27:08;101294.72;;;9.65;77.45
69574;BME280;62840;52.366;5.980;2023-11-21T06:29:34;101294.47;;;9.68;77.35
69574;BME280;62840;52.366;5.980;2023-11-21T06:32:00;101297.03;;;9.70;77.34
69574;BME280;62840;52.366;5.980;2023-11-21T06:34:25;101301.50;;;9.69;77.40
69574;BME280;62840;52.366;5.980;2023-11-21T06:36:51;101302.38;;;9.70;77.29
69574;BME280;62840;52.366;5.980;2023-11-21T06:39:19;101306.63;;;9.72;77.30
69574;BME280;62840;52.366;5.980;2023-11-21T06:41:45;101301.28;;;9.72;77.18
69574;BME280;62840;52.366;5.980;2023-11-21T06:44:11;101306.63;;;9.72;77.30
69574;BME280;62840;52.366;5.980;2023-11-21T06:46:37;101302.97;;;9.73;77.50
69574;BME280;62840;52.366;5.980;2023-11-21T06:49:02;101310.88;;;9.75;77.48
69574;BME280;62840;52.366;5.980;2023-11-21T06:51:28;101315.34;;;9.74;77.31
69574;BME280;62840;52.366;5.980;2023-11-21T06:53:54;101310.03;;;9.74;77.38
69574;BME280;62840;52.366;5.980;2023-11-21T06:56:22;101322.38;;;9.75;77.45
69574;BME280;62840;52.366;5.980;2023-11-21T06:58:49;101330.34;;;9.75;77.51
69574;BME280;62840;52.366;5.980;2023-11-21T07:01:15;101326.84;;;9.75;77.31
69574;BME280;62840;52.366;5.980;2023-11-21T07:03:41;101335.59;;;9.77;77.52
69574;BME280;62840;52.366;5.980;2023-11-21T07:06:08;101342.72;;;9.76;77.44
69574;BME280;62840;52.366;5.980;2023-11-21T07:08:34;101348.78;;;9.78;77.39
69574;BME280;62840;52.366;5.980;2023-11-21T07:10:59;101344.31;;;9.79;77.47
69574;BME280;62840;52.366;5.980;2023-11-21T07:13:28;101354.09;;;9.78;77.51
69574;BME280;62840;52.366;5.980;2023-11-21T07:15:54;101365.63;;;9.79;77.38
69574;BME280;62840;52.366;5.980;2023-11-21T07:18:20;101377.13;;;9.79;77.53
69574;BME280;62840;52.366;5.980;2023-11-21T07:20:45;101378.81;;;9.80;77.36
69574;BME280;62840;52.366;5.980;2023-11-21T07:23:11;101377.97;;;9.80;77.58
69574;BME280;62840;52.366;5.980;2023-11-21T07:25:37;101387.78;;;9.79;77.42
69574;BME280;62840;52.366;5.980;2023-11-21T07:28:03;101385.03;;;9.81;77.62
69574;BME280;62840;52.366;5.980;2023-11-21T07:30:32;101391.19;;;9.81;77.48
69574;BME280;62840;52.366;5.980;2023-11-21T07:32:58;101389.47;;;9.80;77.58
69574;BME280;62840;52.366;5.980;2023-11-21T07:35:24;101405.47;;;9.80;77.51
69574;BME280;62840;52.366;5.980;2023-11-21T07:37:50;101400.13;;;9.80;77.45
69574;BME280;62840;52.366;5.980;2023-11-21T07:40:16;101409.84;;;9.81;77.74
69574;BME280;62840;52.366;5.980;2023-11-21T07:42:41;101414.19;;;9.82;77.71
69574;BME280;62840;52.366;5.980;2023-11-21T07:45:08;101420.41;;;9.83;77.51
69574;BME280;62840;52.366;5.980;2023-11-21T07:47:37;101425.59;;;9.84;77.63
69574;BME280;62840;52.366;5.980;2023-11-21T07:50:03;101426.34;;;9.87;77.62
69574;BME280;62840;52.366;5.980;2023-11-21T07:52:30;101421.88;;;9.87;77.49
69574;BME280;62840;52.366;5.980;2023-11-21T07:54:56;101432.53;;;9.87;77.72
69574;BME280;62840;52.366;5.980;2023-11-21T07:57:22;101428.78;;;9.90;77.58
69574;BME280;62840;52.366;5.980;2023-11-21T07:59:47;101442.09;;;9.90;77.67
69574;BME280;62840;52.366;5.980;2023-11-21T08:02:13;101437.53;;;9.92;77.60
69574;BME280;62840;52.366;5.980;2023-11-21T08:04:41;101449.16;;;9.91;77.74
69574;BME280;62840;52.366;5.980;2023-11-21T08:07:07;101458.84;;;9.92;77.57
69574;BME280;62840;52.366;5.980;2023-11-21T08:09:33;101466.84;;;9.92;77.62
69574;BME280;62840;52.366;5.980;2023-11-21T08:11:59;101468.56;;;9.93;77.62
69574;BME280;62840;52.366;5.980;2023-11-21T08:14:24;101478.25;;;9.94;77.82
69574;BME280;62840;52.366;5.980;2023-11-21T08:16:50;101470.25;;;9.94;77.74
69574;BME280;62840;52.366;5.980;2023-11-21T08:19:16;101478.97;;;9.96;77.77
69574;BME280;62840;52.366;5.980;2023-11-21T08:21:45;101480.72;;;9.97;77.71
69574;BME280;62840;52.366;5.980;2023-11-21T08:24:10;101489.44;;;9.99;77.82
69574;BME280;62840;52.366;5.980;2023-11-21T08:26:36;101499.97;;;10.00;77.88
69574;BME280;62840;52.366;5.980;2023-11-21T08:29:02;101506.91;;;10.03;77.78
69574;BME280;62840;52.366;5.980;2023-11-21T08:31:28;101506.72;;;10.06;77.63
69574;BME280;62840;52.366;5.980;2023-11-21T08:33:54;101504.78;;;10.08;77.71
69574;BME280;62840;52.366;5.980;2023-11-21T08:36:20;101517.16;;;10.09;77.83
69574;BME280;62840;52.366;5.980;2023-11-21T08:38:48;101517.88;;;10.11;77.75
69574;BME280;62840;52.366;5.980;2023-11-21T08:41:14;101524.91;;;10.12;77.61
69574;BME280;62840;52.366;5.980;2023-11-21T08:43:40;101528.31;;;10.14;77.61
69574;BME280;62840;52.366;5.980;2023-11-21T08:46:06;101530.16;;;10.14;77.91
69574;BME280;62840;52.366;5.980;2023-11-21T08:48:32;101531.75;;;10.16;77.88
69574;BME280;62840;52.366;5.980;2023-11-21T08:50:57;101530.81;;;10.17;77.78
69574;BME280;62840;52.366;5.980;2023-11-21T08:53:23;101531.66;;;10.18;77.97
69574;BME280;62840;52.366;5.980;2023-11-21T08:55:52;101535.91;;;10.20;77.99
69574;BME280;62840;52.366;5.980;2023-11-21T08:58:17;101531.41;;;10.21;77.80
69574;BME280;62840;52.366;5.980;2023-11-21T09:00:43;101537.63;;;10.21;78.06
69574;BME280;62840;52.366;5.980;2023-11-21T09:03:09;101548.06;;;10.24;78.00
69574;BME280;62840;52.366;5.980;2023-11-21T09:05:37;101551.47;;;10.27;77.87
69574;BME280;62840;52.366;5.980;2023-11-21T09:08:03;101553.16;;;10.28;78.01
69574;BME280;62840;52.366;5.980;2023-11-21T09:10:29;101552.09;;;10.30;78.07
69574;BME280;62840;52.366;5.980;2023-11-21T09:12:57;101557.34;;;10.32;77.84
69574;BME280;62840;52.366;5.980;2023-11-21T09:15:23;101572.16;;;10.36;77.92
69574;BME280;62840;52.366;5.980;2023-11-21T09:17:49;101565.84;;;10.37;78.05
69574;BME280;62840;52.366;5.980;2023-11-21T09:20:15;101574.72;;;10.37;77.95
69574;BME280;62840;52.366;5.980;2023-11-21T09:22:41;101573.84;;;10.37;78.08
69574;BME280;62840;52.366;5.980;2023-11-21T09:25:07;101585.41;;;10.37;77.97
69574;BME280;62840;52.366;5.980;2023-11-21T09:27:34;101595.94;;;10.39;77.98
69574;BME280;62840;52.366;5.980;2023-11-21T09:30:03;101612.81;;;10.39;78.07
69574;BME280;62840;52.366;5.980;2023-11-21T09:32:29;101616.31;;;10.40;78.12
69574;BME280;62840;52.366;5.980;2023-11-21T09:34:55;101618.25;;;10.38;78.00
69574;BME280;62840;52.366;5.980;2023-11-21T09:37:21;101618.25;;;10.38;78.03
69574;BME280;62840;52.366;5.980;2023-11-21T09:39:47;101624.31;;;10.40;78.04
69574;BME280;62840;52.366;5.980;2023-11-21T09:42:13;101628.69;;;10.41;78.02
69574;BME280;62840;52.366;5.980;2023-11-21T09:44:50;101630.59;;;10.39;78.18
69574;BME280;62840;52.366;5.980;2023-11-21T09:47:26;101635.94;;;10.39;78.25
69574;BME280;62840;52.366;5.980;2023-11-21T09:49:54;101637.84;;;10.37;78.23
69574;BME280;62840;52.366;5.980;2023-11-21T09:52:25;101646.81;;;10.36;78.20
69574;BME280;62840;52.366;5.980;2023-11-21T09:54:52;101644.16;;;10.36;78.29
69574;BME280;62840;52.366;5.980;2023-11-21T09:57:19;101658.97;;;10.40;78.38
69574;BME280;62840;52.366;5.980;2023-11-21T09:59:46;101651.72;;;10.42;78.27
69574;BME280;62840;52.366;5.980;2023-11-21T10:02:17;101651.72;;;10.42;78.35
69574;BME280;62840;52.366;5.980;2023-11-21T10:04:46;101650.00;;;10.41;78.25
69574;BME280;62840;52.366;5.980;2023-11-21T10:07:13;101647.34;;;10.41;78.36
69574;BME280;62840;52.366;5.980;2023-11-21T10:09:43;101657.91;;;10.42;78.31
69574;BME280;62840;52.366;5.980;2023-11-21T10:12:10;101660.50;;;10.44;78.29
69574;BME280;62840;52.366;5.980;2023-11-21T10:14:41;101665.81;;;10.44;78.34
69574;BME280;62840;52.366;5.980;2023-11-21T10:17:08;101667.50;;;10.45;78.12
69574;BME280;62840;52.366;5.980;2023-11-21T10:19:38;101674.34;;;10.49;78.15
69574;BME280;62840;52.366;5.980;2023-11-21T10:22:07;101683.19;;;10.50;78.11
69574;BME280;62840;52.366;5.980;2023-11-21T10:24:34;101683.94;;;10.52;78.12
69574;BME280;62840;52.366;5.980;2023-11-21T10:27:00;101683.09;;;10.51;78.09
69574;BME280;62840;52.366;5.980;2023-11-21T10:29:28;101695.47;;;10.52;77.88
69574;BME280;62840;52.366;5.980;2023-11-21T10:31:55;101702.72;;;10.50;78.06
69574;BME280;62840;52.366;5.980;2023-11-21T10:34:21;101703.69;;;10.49;78.04
69574;BME280;62840;52.366;5.980;2023-11-21T10:36:46;101715.09;;;10.51;78.08
69574;BME280;62840;52.366;5.980;2023-11-21T10:39:16;101713.19;;;10.53;78.19
69574;BME280;62840;52.366;5.980;2023-11-21T10:41:43;101711.28;;;10.55;78.11
69574;BME280;62840;52.366;5.980;2023-11-21T10:44:13;101702.31;;;10.56;78.00
69574;BME280;62840;52.366;5.980;2023-11-21T10:46:39;101715.72;;;10.55;77.90
69574;BME280;62840;52.366;5.980;2023-11-21T10:49:05;101714.88;;;10.54;77.99
69574;BME280;62840;52.366;5.980;2023-11-21T10:51:31;101727.28;;;10.55;78.01
69574;BME280;62840;52.366;5.980;2023-11-21T10:53:57;101726.41;;;10.55;77.92
69574;BME280;62840;52.366;5.980;2023-11-21T10:56:27;101728.97;;;10.56;77.99
69574;BME280;62840;52.366;5.980;2023-11-21T10:58:54;101727.28;;;10.55;77.87
69574;BME280;62840;52.366;5.980;2023-11-21T11:01:20;101730.88;;;10.54;77.83
69574;BME280;62840;52.366;5.980;2023-11-21T11:03:50;101735.59;;;10.51;77.75
69574;BME280;62840;52.366;5.980;2023-11-21T11:06:17;101741.78;;;10.51;77.64
69574;BME280;62840;52.366;5.980;2023-11-21T11:08:44;101741.78;;;10.51;77.68
69574;BME280;62840;52.366;5.980;2023-11-21T11:11:10;101743.59;;;10.51;77.73
69574;BME280;62840;52.366;5.980;2023-11-21T11:13:39;101745.38;;;10.50;77.93
69574;BME280;62840;52.366;5.980;2023-11-21T11:16:09;101751.59;;;10.51;77.82
69574;BME280;62840;52.366;5.980;2023-11-21T11:18:35;101752.44;;;10.51;77.98
69574;BME280;62840;52.366;5.980;2023-11-21T11:21:07;101749.66;;;10.53;77.87
69574;BME280;62840;52.366;5.980;2023-11-21T11:23:49;101754.13;;;10.52;78.01
69574;BME280;62840;52.366;5.980;2023-11-21T11:26:37;101753.06;;;10.55;77.93
69574;BME280;62840;52.366;5.980;2023-11-21T11:29:21;101753.94;;;10.55;77.93
69574;BME280;62840;52.366;5.980;2023-11-21T11:32:07;101758.31;;;10.56;77.91
69574;BME280;62840;52.366;5.980;2023-11-21T11:34:46;101761.81;;;10.57;77.82
69574;BME280;62840;52.366;5.980;2023-11-21T11:37:19;101767.16;;;10.57;77.94
69574;BME280;62840;52.366;5.980;2023-11-21T11:39:46;101766.31;;;10.56;77.89
69574;BME280;62840;52.366;5.980;2023-11-21T11:42:16;101764.41;;;10.58;77.81
69574;BME280;62840;52.366;5.980;2023-11-21T11:44:50;101766.97;;;10.60;77.99
69574;BME280;62840;52.366;5.980;2023-11-21T11:47:29;101777.53;;;10.61;78.00
69574;BME280;62840;52.366;5.980;2023-11-21T11:50:02;101777.53;;;10.61;77.87
69574;BME280;62840;52.366;5.980;2023-11-21T11:52:36;101777.44;;;10.63;77.90
69574;BME280;62840;52.366;5.980;2023-11-21T11:55:06;101780.19;;;10.61;77.82
69574;BME280;62840;52.366;5.980;2023-11-21T11:57:34;101788.00;;;10.64;77.84
69574;BME280;62840;52.366;5.980;2023-11-21T12:00:17;101782.53;;;10.66;77.92
69574;BME280;62840;52.366;5.980;2023-11-21T12:02:45;101801.13;;;10.67;78.20
69574;BME280;62840;52.366;5.980;2023-11-21T12:05:14;101796.75;;;10.66;77.86
69574;BME280;62840;52.366;5.980;2023-11-21T12:07:50;101804.53;;;10.70;77.93
69574;BME280;62840;52.366;5.980;2023-11-21T12:10:19;101803.78;;;10.67;78.02
69574;BME280;62840;52.366;5.980;2023-11-21T12:12:47;101804.75;;;10.66;77.87
69574;BME280;62840;52.366;5.980;2023-11-21T12:15:16;101813.91;;;10.62;77.75
69574;BME280;62840;52.366;5.980;2023-11-21T12:17:44;101814.09;;;10.59;77.78
69574;BME280;62840;52.366;5.980;2023-11-21T12:20:14;101825.75;;;10.58;77.82
69574;BME280;62840;52.366;5.980;2023-11-21T12:22:44;101833.75;;;10.58;77.72
69574;BME280;62840;52.366;5.980;2023-11-21T12:25:11;101833.00;;;10.56;77.80
69574;BME280;62840;52.366;5.980;2023-11-21T12:27:37;101832.25;;;10.54;77.72
69574;BME280;62840;52.366;5.980;2023-11-21T12:30:03;101839.50;;;10.52;77.89
69574;BME280;62840;52.366;5.980;2023-11-21T12:32:32;101837.88;;;10.50;77.67
69574;BME280;62840;52.366;5.980;2023-11-21T12:34:58;101840.88;;;10.45;77.68
69574;BME280;62840;52.366;5.980;2023-11-21T12:37:24;101845.44;;;10.43;77.67
69574;BME280;62840;52.366;5.980;2023-11-21T12:39:50;101841.06;;;10.42;77.83
69574;BME280;62840;52.366;5.980;2023-11-21T12:42:16;101840.31;;;10.40;77.75
69574;BME280;62840;52.366;5.980;2023-11-21T12:44:42;101836.91;;;10.38;77.76
69574;BME280;62840;52.366;5.980;2023-11-21T12:47:11;101840.50;;;10.37;77.72
69574;BME280;62840;52.366;5.980;2023-11-21T12:49:44;101835.16;;;10.37;77.69
69574;BME280;62840;52.366;5.980;2023-11-21T12:52:10;101847.75;;;10.35;77.83
69574;BME280;62840;52.366;5.980;2023-11-21T12:54:36;101839.00;;;10.33;77.64
69574;BME280;62840;52.366;5.980;2023-11-21T12:57:02;101844.34;;;10.33;77.52